Ever Loyal — BKIZ — position and weather

sailwx.info

Track history (hours):
 
Tides and Currents Weather Stations Pressure Air Temp Water Temp Dewpoint Dewpoint Depression Visibility Wind Speed Wind Dir Waves Ship Positions

Ever Loyal

Last reported at 2018-Apr-22 13:59 UTC. Time now 2018-Apr-22 14:15 UTC.
Position N 36°53' W 076°21'.

Length 335 m; draft 11.1 m.

Type: Ship (hazmat cat D). MMSI: 416495000.

Date/timePositionNaut miles runAvg speedWind from/ knotsBaromVisibWave heightAir tempDewpointWater temp
2018-Apr-22 13:59N 36°53' W 076°21'0 0.0
2018-Apr-22 13:29N 36°53' W 076°21'0 0.0
2018-Apr-22 12:56N 36°53' W 076°21'0 0.0
2018-Apr-22 12:26N 36°53' W 076°21'0 0.0
2018-Apr-22 11:59N 36°53' W 076°21'0 0.0
2018-Apr-22 11:30N 36°53' W 076°21'1 1.8
2018-Apr-22 11:01N 36°53' W 076°20'4 7.3
2018-Apr-22 10:31N 36°57' W 076°20'510.0
2018-Apr-22 10:00N 37°00' W 076°16'713.9
2018-Apr-22 09:30N 36°59' W 076°08'713.4
2018-Apr-22 09:00N 36°57' W 075°59'4 8.8
2018-Apr-22 08:31N 36°55' W 075°55'1 2.4
2018-Apr-22 08:00N 36°55' W 075°56'4 8.0
2018-Apr-22 07:30N 36°58' W 075°60'612.1
2018-Apr-22 07:00N 37°03' W 076°04'815.8
2018-Apr-22 06:30N 37°10' W 076°09'8417.1
2018-Apr-22 01:37N 38°32' W 076°25'317.6
2018-Apr-22 01:28N 38°35' W 076°26'817.5
2018-Apr-22 01:00N 38°43' W 076°26'918.5
2018-Apr-22 00:31N 38°52' W 076°24'917.0
2018-Apr-22 00:00N 39°01' W 076°23'714.1
2018-Apr-21 23:30N 39°08' W 076°24'612.4
2018-Apr-21 23:01N 39°12' W 076°30'4 7.0
2018-Apr-21 22:30N 39°14' W 076°33'1 1.3
2018-Apr-21 22:00N 39°15' W 076°33'0 0.0
2018-Apr-21 21:29N 39°15' W 076°33'0 0.0
2018-Apr-21 21:00N 39°15' W 076°33'0 0.0
2018-Apr-21 20:30N 39°15' W 076°33'0 0.0
2018-Apr-21 19:59N 39°15' W 076°33'0 0.0
2018-Apr-21 19:30N 39°15' W 076°33'0 0.0
2018-Apr-21 19:00N 39°15' W 076°33'0 0.0
2018-Apr-21 18:30N 39°15' W 076°33'0 0.0
2018-Apr-21 18:00N 39°15' W 076°33'0 0.0
2018-Apr-21 17:30N 39°15' W 076°33'0 0.0
2018-Apr-21 17:00N 39°15' W 076°33'0 0.0
2018-Apr-21 16:30N 39°15' W 076°33'0 0.0
2018-Apr-21 16:00N 39°15' W 076°33'0 0.0
2018-Apr-21 15:30N 39°15' W 076°33'0 0.1
2018-Apr-21 14:59N 39°15' W 076°33'0 0.0
2018-Apr-21 14:30N 39°15' W 076°33'0 0.0
2018-Apr-21 14:00N 39°15' W 076°33'0 0.0
2018-Apr-21 13:30N 39°15' W 076°33'0 0.0
2018-Apr-21 13:00N 39°15' W 076°33'0 0.0
2018-Apr-21 12:30N 39°15' W 076°33'0 0.0
2018-Apr-21 11:59N 39°15' W 076°33'0 0.0
2018-Apr-21 11:30N 39°15' W 076°33'0 0.0
2018-Apr-21 11:00N 39°15' W 076°33'0 0.0
2018-Apr-21 10:30N 39°15' W 076°33'0 0.0
2018-Apr-21 09:59N 39°15' W 076°33'0 0.1
2018-Apr-21 09:29N 39°15' W 076°33'0 0.0
2018-Apr-21 09:00N 39°15' W 076°33'0 0.0
2018-Apr-21 08:30N 39°15' W 076°33'0 0.0
2018-Apr-21 08:00N 39°15' W 076°33'0 0.0
2018-Apr-21 07:30N 39°15' W 076°33'0 0.0
2018-Apr-21 07:00N 39°15' W 076°33'0 0.0
2018-Apr-21 06:30N 39°15' W 076°33'0 0.0
2018-Apr-21 06:00N 39°15' W 076°33'0 0.0
2018-Apr-21 05:30N 39°15' W 076°33'0 0.0
2018-Apr-21 05:00N 39°15' W 076°33'0 0.0
2018-Apr-21 04:30N 39°15' W 076°33'0 0.0
2018-Apr-21 04:00N 39°15' W 076°33'0 0.0
2018-Apr-21 03:30N 39°15' W 076°33'0 0.0
2018-Apr-21 03:00N 39°15' W 076°33'0 0.0
2018-Apr-21 02:30N 39°15' W 076°33'0 0.0
2018-Apr-21 01:59N 39°15' W 076°33'0 0.0
2018-Apr-21 01:29N 39°15' W 076°33'0 0.0
2018-Apr-21 01:00N 39°15' W 076°33'0 0.0
2018-Apr-21 00:30N 39°15' W 076°33'0 0.0
2018-Apr-21 00:00N 39°15' W 076°33'0 0.0
2018-Apr-20 23:29N 39°15' W 076°33'0 0.0
2018-Apr-20 23:00N 39°15' W 076°33'0 0.0
2018-Apr-20 22:30N 39°15' W 076°33'0 0.0
2018-Apr-20 22:00N 39°15' W 076°33'0 0.0
2018-Apr-20 21:30N 39°15' W 076°33'0 0.0
2018-Apr-20 21:00N 39°15' W 076°33'0 0.0
2018-Apr-20 20:30N 39°15' W 076°33'0 0.0
2018-Apr-20 20:00N 39°15' W 076°32'0 0.0
2018-Apr-20 19:29N 39°15' W 076°33'0 0.0
2018-Apr-20 19:00N 39°15' W 076°33'0 0.0
2018-Apr-20 18:30N 39°15' W 076°33'0 0.0
2018-Apr-20 18:00N 39°15' W 076°33'0 0.0
2018-Apr-20 17:30N 39°15' W 076°33'0 0.0
2018-Apr-20 16:59N 39°15' W 076°33'0 0.0
2018-Apr-20 16:30N 39°15' W 076°33'0 0.0
2018-Apr-20 16:00N 39°15' W 076°33'0 0.0
2018-Apr-20 15:30N 39°15' W 076°33'0 0.0
2018-Apr-20 15:00N 39°15' W 076°33'0 0.0
2018-Apr-20 14:30N 39°15' W 076°33'0 0.0
2018-Apr-20 14:00N 39°15' W 076°33'0 0.0
2018-Apr-20 13:30N 39°15' W 076°33'0 0.0
2018-Apr-20 13:00N 39°15' W 076°33'0 0.0
2018-Apr-20 12:30N 39°15' W 076°33'0 0.0
2018-Apr-20 11:59N 39°15' W 076°33'0 0.0
2018-Apr-20 11:30N 39°15' W 076°33'0 0.0
2018-Apr-20 11:00N 39°15' W 076°33'0 0.0
2018-Apr-20 10:30N 39°15' W 076°33'0 0.0
2018-Apr-20 10:00N 39°15' W 076°33'0 0.0
2018-Apr-20 09:30N 39°15' W 076°33'0 0.7
2018-Apr-20 09:00N 39°15' W 076°32'2 4.0
2018-Apr-20 08:30N 39°13' W 076°31'510.5
2018-Apr-20 08:00N 39°10' W 076°26'613.0
2018-Apr-20 07:30N 39°04' W 076°24'815.2
2018-Apr-20 07:00N 38°56' W 076°23'918.1
2018-Apr-20 06:30N 38°47' W 076°25'917.8
2018-Apr-20 06:00N 38°38' W 076°25'4017.8
2018-Apr-20 03:45N 37°60' W 076°12'417.6
2018-Apr-20 03:30N 37°56' W 076°09'5214.1
2018-Apr-19 23:48N 37°03' W 076°05'414.2
2018-Apr-19 23:29N 37°00' W 076°02'510.6
2018-Apr-19 23:00N 36°56' W 075°57'4 8.0
2018-Apr-19 22:30N 36°54' W 075°53'3 5.4
2018-Apr-19 22:00N 36°52' W 075°51'4 7.8
2018-Apr-19 21:30N 36°50' W 075°47'4 6.9
2018-Apr-19 20:57N 36°50' W 075°42'0 0.0
2018-Apr-19 15:30N 36°50' W 075°42'0 0.0
2018-Apr-19 14:54N 36°50' W 075°42'0 0.0
2018-Apr-19 14:24N 36°50' W 075°42'0 0.0
2018-Apr-19 14:00N 36°50' W 075°42'0 0.0
2018-Apr-19 13:06N 36°50' W 075°42'0 0.1
2018-Apr-19 13:00N 36°50' W 075°42'0 0.0
2018-Apr-19 12:30N 36°50' W 075°42'0 0.0
2018-Apr-19 11:55N 36°50' W 075°42'0 0.4
2018-Apr-19 11:10N 36°51' W 075°42'99 9.6
2018-Apr-19 00:52N 38°13' W 074°33'1013.2
2018-Apr-19 00:07N 38°23' W 074°29'433.8
2018-Apr-19 00:00N 38°24' W 074°24'4375.4 190 / 181002.027.0 8.0 6.0 8.0
2018-Apr-18 23:59N 38°24' W 074°29'713.4
2018-Apr-18 23:29N 38°31' W 074°26'5413.8
2018-Apr-18 19:34N 39°21' W 074°02'113.9
2018-Apr-18 19:30N 39°22' W 074°01'714.0
2018-Apr-18 19:00N 39°29' W 073°58'814.1
2018-Apr-18 18:28N 39°36' W 073°56'714.2
2018-Apr-18 18:00N 39°42' W 073°54'714.4
2018-Apr-18 17:30N 39°50' W 073°53'814.5
2018-Apr-18 16:57N 39°57' W 073°51'1712.4
2018-Apr-18 15:33N 40°15' W 073°49'1 9.6
2018-Apr-18 15:29N 40°15' W 073°49'5 9.9
2018-Apr-18 14:59N 40°20' W 073°49'5 9.7
2018-Apr-18 14:28N 40°25' W 073°50'4 8.9
2018-Apr-18 14:00N 40°29' W 073°53'510.4
2018-Apr-18 13:30N 40°31' W 073°59'611.9
2018-Apr-18 13:01N 40°36' W 074°03'3 6.8
2018-Apr-18 12:30N 40°39' W 074°05'2 4.3
2018-Apr-18 12:00N 40°39' W 074°08'1 3.0
2018-Apr-18 11:30N 40°40' W 074°08'1 1.8
2018-Apr-18 10:59N 40°41' W 074°09'0 0.0
2018-Apr-18 10:29N 40°41' W 074°09'0 0.0
2018-Apr-18 09:59N 40°41' W 074°09'0 0.0
2018-Apr-18 09:29N 40°41' W 074°09'0 0.0
2018-Apr-18 08:59N 40°41' W 074°09'0 0.0
2018-Apr-18 08:29N 40°41' W 074°09'0 0.0
2018-Apr-18 07:59N 40°41' W 074°09'0 0.0
2018-Apr-18 07:29N 40°41' W 074°09'0 0.0
2018-Apr-18 06:59N 40°41' W 074°09'0 0.0
2018-Apr-18 06:29N 40°41' W 074°09'0 0.0
2018-Apr-18 05:59N 40°41' W 074°09'0 0.0
2018-Apr-18 05:29N 40°41' W 074°09'0 0.0
2018-Apr-18 04:59N 40°41' W 074°09'0 0.0
2018-Apr-18 04:29N 40°41' W 074°09'0 0.0
2018-Apr-18 03:59N 40°41' W 074°09'0 0.0
2018-Apr-18 03:29N 40°41' W 074°09'0 0.0
2018-Apr-18 02:56N 40°41' W 074°09'0 0.0
2018-Apr-18 02:29N 40°41' W 074°09'0 0.0
2018-Apr-18 01:59N 40°41' W 074°09'0 0.0
2018-Apr-18 01:29N 40°41' W 074°09'0 0.0
2018-Apr-18 00:59N 40°41' W 074°09'0 0.0
2018-Apr-18 00:26N 40°41' W 074°09'0 0.0
2018-Apr-17 23:59N 40°41' W 074°09'0 0.0
2018-Apr-17 23:29N 40°41' W 074°09'0 0.0
2018-Apr-17 22:59N 40°41' W 074°09'0 0.0
2018-Apr-17 22:29N 40°41' W 074°09'0 0.0
2018-Apr-17 21:59N 40°41' W 074°09'0 0.0
2018-Apr-17 21:29N 40°41' W 074°09'0 0.0
2018-Apr-17 20:59N 40°41' W 074°09'0 0.0
2018-Apr-17 20:26N 40°41' W 074°09'0 0.0
2018-Apr-17 19:59N 40°41' W 074°09'0 0.1
2018-Apr-17 19:29N 40°41' W 074°09'0 0.0
2018-Apr-17 18:56N 40°41' W 074°09'0 0.0
2018-Apr-17 18:23N 40°41' W 074°09'0 0.0
2018-Apr-17 17:59N 40°41' W 074°09'0 0.0
2018-Apr-17 17:29N 40°41' W 074°09'0 0.0
2018-Apr-17 16:59N 40°41' W 074°09'0 0.0
2018-Apr-17 16:29N 40°41' W 074°09'0 0.0
2018-Apr-17 15:59N 40°41' W 074°09'0 0.0
2018-Apr-17 15:29N 40°41' W 074°09'0 0.1
2018-Apr-17 14:59N 40°41' W 074°09'0 0.0
2018-Apr-17 14:29N 40°41' W 074°09'0 0.0
2018-Apr-17 13:59N 40°41' W 074°09'0 0.0
2018-Apr-17 13:29N 40°41' W 074°09'0 0.0
2018-Apr-17 12:56N 40°41' W 074°09'0 0.0
2018-Apr-17 12:29N 40°41' W 074°09'0 0.0
2018-Apr-17 11:56N 40°41' W 074°09'0 0.0
2018-Apr-17 11:29N 40°41' W 074°09'0 0.0
2018-Apr-17 10:59N 40°41' W 074°09'0 0.0
2018-Apr-17 10:26N 40°41' W 074°09'0 0.0
2018-Apr-17 09:59N 40°41' W 074°09'0 0.0
2018-Apr-17 09:29N 40°41' W 074°09'0 0.0
2018-Apr-17 08:59N 40°41' W 074°09'0 0.1
2018-Apr-17 08:29N 40°41' W 074°09'0 0.0
2018-Apr-17 07:59N 40°41' W 074°09'0 0.0
2018-Apr-17 07:29N 40°41' W 074°09'0 0.0
2018-Apr-17 06:59N 40°41' W 074°09'0 0.0
2018-Apr-17 06:29N 40°41' W 074°09'0 0.0
2018-Apr-17 05:59N 40°41' W 074°09'0 0.0
2018-Apr-17 05:29N 40°41' W 074°09'0 0.0
2018-Apr-17 04:59N 40°41' W 074°09'0 0.0
2018-Apr-17 04:29N 40°41' W 074°09'0 0.0
2018-Apr-17 03:59N 40°41' W 074°09'0 0.0
2018-Apr-17 03:29N 40°41' W 074°09'0 0.0
2018-Apr-17 02:58N 40°41' W 074°09'0 0.0
2018-Apr-17 02:28N 40°41' W 074°09'0 0.0
2018-Apr-17 01:58N 40°41' W 074°09'0 0.0
2018-Apr-17 01:28N 40°41' W 074°09'0 0.0
2018-Apr-17 00:58N 40°41' W 074°09'0 0.0
2018-Apr-17 00:28N 40°41' W 074°09'0 0.0
2018-Apr-16 23:58N 40°41' W 074°09'0 0.0
2018-Apr-16 23:28N 40°41' W 074°09'0 0.0
2018-Apr-16 22:58N 40°41' W 074°09'0 0.0
2018-Apr-16 22:28N 40°41' W 074°09'0 0.0
2018-Apr-16 21:58N 40°41' W 074°09'0 0.0
2018-Apr-16 21:30N 40°41' W 074°09'0 0.8
2018-Apr-16 21:00N 40°41' W 074°09'1 2.3
2018-Apr-16 20:30N 40°40' W 074°09'1 2.9
2018-Apr-16 20:00N 40°39' W 074°07'3 5.4
2018-Apr-16 19:30N 40°39' W 074°04'4 8.2
2018-Apr-16 19:00N 40°35' W 074°02'611.4
2018-Apr-16 18:30N 40°30' W 073°57'612.5
2018-Apr-16 18:00N 40°28' W 073°50'3 6.9
2018-Apr-16 17:30N 40°26' W 073°46'4 7.3
2018-Apr-16 17:00N 40°23' W 073°42'5110.2
2018-Apr-16 12:00N 39°48' W 072°54'8914.9 120 / 331011.0 0.1 16.012.7 7.0
2018-Apr-16 06:00N 38°42' W 071°36'8413.9 140 / 231020.0 19.017.513.0
2018-Apr-16 00:00N 37°30' W 070°42'8514.2 170 / 201023.010.8 25.020.724.0
2018-Apr-15 18:00N 36°06' W 071°00'8514.2 190 / 151025.027.0 25.022.222.0
2018-Apr-15 12:00N 34°42' W 071°18'8514.1 210 / 91025.027.0 21.018.021.0
2018-Apr-15 06:00N 33°18' W 071°30'9215.4 210 / 71025.0 21.019.522.0
2018-Apr-15 00:00N 31°48' W 071°54'19516.2 140 / 41025.010.8 21.018.022.0
2018-Apr-14 12:00N 28°36' W 072°30'9115.2 010 / 141025.027.0 23.020.123.0
2018-Apr-14 06:00N 27°06' W 072°48'   090 / 201022.0 24.022.624.0
Track history (hours):
 
Tides and Currents Weather Stations Pressure Air Temp Water Temp Dewpoint Dewpoint Depression Visibility Wind Speed Wind Dir Waves Ship Positions

Ever Loyal

Last reported at 2018-Apr-22 13:59 UTC. Time now 2018-Apr-22 14:15 UTC.
Position N 36°53' W 076°21'.

Length 335 m; draft 11.1 m.

Type: Ship (hazmat cat D). MMSI: 416495000.

Date/timePositionNaut miles runAvg speedWind from/ knotsBaromVisibWave heightAir tempDewpointWater temp
2018-Apr-22 13:59N 36°53' W 076°21'0 0.0
2018-Apr-22 13:29N 36°53' W 076°21'0 0.0
2018-Apr-22 12:56N 36°53' W 076°21'0 0.0
2018-Apr-22 12:26N 36°53' W 076°21'0 0.0
2018-Apr-22 11:59N 36°53' W 076°21'0 0.0
2018-Apr-22 11:30N 36°53' W 076°21'1 1.8
2018-Apr-22 11:01N 36°53' W 076°20'4 7.3
2018-Apr-22 10:31N 36°57' W 076°20'510.0
2018-Apr-22 10:00N 37°00' W 076°16'713.9
2018-Apr-22 09:30N 36°59' W 076°08'713.4
2018-Apr-22 09:00N 36°57' W 075°59'4 8.8
2018-Apr-22 08:31N 36°55' W 075°55'1 2.4
2018-Apr-22 08:00N 36°55' W 075°56'4 8.0
2018-Apr-22 07:30N 36°58' W 075°60'612.1
2018-Apr-22 07:00N 37°03' W 076°04'815.8
2018-Apr-22 06:30N 37°10' W 076°09'8417.1
2018-Apr-22 01:37N 38°32' W 076°25'317.6
2018-Apr-22 01:28N 38°35' W 076°26'817.5
2018-Apr-22 01:00N 38°43' W 076°26'918.5
2018-Apr-22 00:31N 38°52' W 076°24'917.0
2018-Apr-22 00:00N 39°01' W 076°23'714.1
2018-Apr-21 23:30N 39°08' W 076°24'612.4
2018-Apr-21 23:01N 39°12' W 076°30'4 7.0
2018-Apr-21 22:30N 39°14' W 076°33'1 1.3
2018-Apr-21 22:00N 39°15' W 076°33'0 0.0
2018-Apr-21 21:29N 39°15' W 076°33'0 0.0
2018-Apr-21 21:00N 39°15' W 076°33'0 0.0
2018-Apr-21 20:30N 39°15' W 076°33'0 0.0
2018-Apr-21 19:59N 39°15' W 076°33'0 0.0
2018-Apr-21 19:30N 39°15' W 076°33'0 0.0
2018-Apr-21 19:00N 39°15' W 076°33'0 0.0
2018-Apr-21 18:30N 39°15' W 076°33'0 0.0
2018-Apr-21 18:00N 39°15' W 076°33'0 0.0
2018-Apr-21 17:30N 39°15' W 076°33'0 0.0
2018-Apr-21 17:00N 39°15' W 076°33'0 0.0
2018-Apr-21 16:30N 39°15' W 076°33'0 0.0
2018-Apr-21 16:00N 39°15' W 076°33'0 0.0
2018-Apr-21 15:30N 39°15' W 076°33'0 0.1
2018-Apr-21 14:59N 39°15' W 076°33'0 0.0
2018-Apr-21 14:30N 39°15' W 076°33'0 0.0
2018-Apr-21 14:00N 39°15' W 076°33'0 0.0
2018-Apr-21 13:30N 39°15' W 076°33'0 0.0
2018-Apr-21 13:00N 39°15' W 076°33'0 0.0
2018-Apr-21 12:30N 39°15' W 076°33'0 0.0
2018-Apr-21 11:59N 39°15' W 076°33'0 0.0
2018-Apr-21 11:30N 39°15' W 076°33'0 0.0
2018-Apr-21 11:00N 39°15' W 076°33'0 0.0
2018-Apr-21 10:30N 39°15' W 076°33'0 0.0
2018-Apr-21 09:59N 39°15' W 076°33'0 0.1
2018-Apr-21 09:29N 39°15' W 076°33'0 0.0
2018-Apr-21 09:00N 39°15' W 076°33'0 0.0
2018-Apr-21 08:30N 39°15' W 076°33'0 0.0
2018-Apr-21 08:00N 39°15' W 076°33'0 0.0
2018-Apr-21 07:30N 39°15' W 076°33'0 0.0
2018-Apr-21 07:00N 39°15' W 076°33'0 0.0
2018-Apr-21 06:30N 39°15' W 076°33'0 0.0
2018-Apr-21 06:00N 39°15' W 076°33'0 0.0
2018-Apr-21 05:30N 39°15' W 076°33'0 0.0
2018-Apr-21 05:00N 39°15' W 076°33'0 0.0
2018-Apr-21 04:30N 39°15' W 076°33'0 0.0
2018-Apr-21 04:00N 39°15' W 076°33'0 0.0
2018-Apr-21 03:30N 39°15' W 076°33'0 0.0
2018-Apr-21 03:00N 39°15' W 076°33'0 0.0
2018-Apr-21 02:30N 39°15' W 076°33'0 0.0
2018-Apr-21 01:59N 39°15' W 076°33'0 0.0
2018-Apr-21 01:29N 39°15' W 076°33'0 0.0
2018-Apr-21 01:00N 39°15' W 076°33'0 0.0
2018-Apr-21 00:30N 39°15' W 076°33'0 0.0
2018-Apr-21 00:00N 39°15' W 076°33'0 0.0
2018-Apr-20 23:29N 39°15' W 076°33'0 0.0
2018-Apr-20 23:00N 39°15' W 076°33'0 0.0
2018-Apr-20 22:30N 39°15' W 076°33'0 0.0
2018-Apr-20 22:00N 39°15' W 076°33'0 0.0
2018-Apr-20 21:30N 39°15' W 076°33'0 0.0
2018-Apr-20 21:00N 39°15' W 076°33'0 0.0
2018-Apr-20 20:30N 39°15' W 076°33'0 0.0
2018-Apr-20 20:00N 39°15' W 076°32'0 0.0
2018-Apr-20 19:29N 39°15' W 076°33'0 0.0
2018-Apr-20 19:00N 39°15' W 076°33'0 0.0
2018-Apr-20 18:30N 39°15' W 076°33'0 0.0
2018-Apr-20 18:00N 39°15' W 076°33'0 0.0
2018-Apr-20 17:30N 39°15' W 076°33'0 0.0
2018-Apr-20 16:59N 39°15' W 076°33'0 0.0
2018-Apr-20 16:30N 39°15' W 076°33'0 0.0
2018-Apr-20 16:00N 39°15' W 076°33'0 0.0
2018-Apr-20 15:30N 39°15' W 076°33'0 0.0
2018-Apr-20 15:00N 39°15' W 076°33'0 0.0
2018-Apr-20 14:30N 39°15' W 076°33'0 0.0
2018-Apr-20 14:00N 39°15' W 076°33'0 0.0
2018-Apr-20 13:30N 39°15' W 076°33'0 0.0
2018-Apr-20 13:00N 39°15' W 076°33'0 0.0
2018-Apr-20 12:30N 39°15' W 076°33'0 0.0
2018-Apr-20 11:59N 39°15' W 076°33'0 0.0
2018-Apr-20 11:30N 39°15' W 076°33'0 0.0
2018-Apr-20 11:00N 39°15' W 076°33'0 0.0
2018-Apr-20 10:30N 39°15' W 076°33'0 0.0
2018-Apr-20 10:00N 39°15' W 076°33'0 0.0
2018-Apr-20 09:30N 39°15' W 076°33'0 0.7
2018-Apr-20 09:00N 39°15' W 076°32'2 4.0
2018-Apr-20 08:30N 39°13' W 076°31'510.5
2018-Apr-20 08:00N 39°10' W 076°26'613.0
2018-Apr-20 07:30N 39°04' W 076°24'815.2
2018-Apr-20 07:00N 38°56' W 076°23'918.1
2018-Apr-20 06:30N 38°47' W 076°25'917.8
2018-Apr-20 06:00N 38°38' W 076°25'4017.8
2018-Apr-20 03:45N 37°60' W 076°12'417.6
2018-Apr-20 03:30N 37°56' W 076°09'5214.1
2018-Apr-19 23:48N 37°03' W 076°05'414.2
2018-Apr-19 23:29N 37°00' W 076°02'510.6
2018-Apr-19 23:00N 36°56' W 075°57'4 8.0
2018-Apr-19 22:30N 36°54' W 075°53'3 5.4
2018-Apr-19 22:00N 36°52' W 075°51'4 7.8
2018-Apr-19 21:30N 36°50' W 075°47'4 6.9
2018-Apr-19 20:57N 36°50' W 075°42'0 0.0
2018-Apr-19 15:30N 36°50' W 075°42'0 0.0
2018-Apr-19 14:54N 36°50' W 075°42'0 0.0
2018-Apr-19 14:24N 36°50' W 075°42'0 0.0
2018-Apr-19 14:00N 36°50' W 075°42'0 0.0
2018-Apr-19 13:06N 36°50' W 075°42'0 0.1
2018-Apr-19 13:00N 36°50' W 075°42'0 0.0
2018-Apr-19 12:30N 36°50' W 075°42'0 0.0
2018-Apr-19 11:55N 36°50' W 075°42'0 0.4
2018-Apr-19 11:10N 36°51' W 075°42'99 9.6
2018-Apr-19 00:52N 38°13' W 074°33'1013.2
2018-Apr-19 00:07N 38°23' W 074°29'433.8
2018-Apr-19 00:00N 38°24' W 074°24'4375.4 190 / 181002.027.0 8.0 6.0 8.0
2018-Apr-18 23:59N 38°24' W 074°29'713.4
2018-Apr-18 23:29N 38°31' W 074°26'5413.8
2018-Apr-18 19:34N 39°21' W 074°02'113.9
2018-Apr-18 19:30N 39°22' W 074°01'714.0
2018-Apr-18 19:00N 39°29' W 073°58'814.1
2018-Apr-18 18:28N 39°36' W 073°56'714.2
2018-Apr-18 18:00N 39°42' W 073°54'714.4
2018-Apr-18 17:30N 39°50' W 073°53'814.5
2018-Apr-18 16:57N 39°57' W 073°51'1712.4
2018-Apr-18 15:33N 40°15' W 073°49'1 9.6
2018-Apr-18 15:29N 40°15' W 073°49'5 9.9
2018-Apr-18 14:59N 40°20' W 073°49'5 9.7
2018-Apr-18 14:28N 40°25' W 073°50'4 8.9
2018-Apr-18 14:00N 40°29' W 073°53'510.4
2018-Apr-18 13:30N 40°31' W 073°59'611.9
2018-Apr-18 13:01N 40°36' W 074°03'3 6.8
2018-Apr-18 12:30N 40°39' W 074°05'2 4.3
2018-Apr-18 12:00N 40°39' W 074°08'1 3.0
2018-Apr-18 11:30N 40°40' W 074°08'1 1.8
2018-Apr-18 10:59N 40°41' W 074°09'0 0.0
2018-Apr-18 10:29N 40°41' W 074°09'0 0.0
2018-Apr-18 09:59N 40°41' W 074°09'0 0.0
2018-Apr-18 09:29N 40°41' W 074°09'0 0.0
2018-Apr-18 08:59N 40°41' W 074°09'0 0.0
2018-Apr-18 08:29N 40°41' W 074°09'0 0.0
2018-Apr-18 07:59N 40°41' W 074°09'0 0.0
2018-Apr-18 07:29N 40°41' W 074°09'0 0.0
2018-Apr-18 06:59N 40°41' W 074°09'0 0.0
2018-Apr-18 06:29N 40°41' W 074°09'0 0.0
2018-Apr-18 05:59N 40°41' W 074°09'0 0.0
2018-Apr-18 05:29N 40°41' W 074°09'0 0.0
2018-Apr-18 04:59N 40°41' W 074°09'0 0.0
2018-Apr-18 04:29N 40°41' W 074°09'0 0.0
2018-Apr-18 03:59N 40°41' W 074°09'0 0.0
2018-Apr-18 03:29N 40°41' W 074°09'0 0.0
2018-Apr-18 02:56N 40°41' W 074°09'0 0.0
2018-Apr-18 02:29N 40°41' W 074°09'0 0.0
2018-Apr-18 01:59N 40°41' W 074°09'0 0.0
2018-Apr-18 01:29N 40°41' W 074°09'0 0.0
2018-Apr-18 00:59N 40°41' W 074°09'0 0.0
2018-Apr-18 00:26N 40°41' W 074°09'0 0.0
2018-Apr-17 23:59N 40°41' W 074°09'0 0.0
2018-Apr-17 23:29N 40°41' W 074°09'0 0.0
2018-Apr-17 22:59N 40°41' W 074°09'0 0.0
2018-Apr-17 22:29N 40°41' W 074°09'0 0.0
2018-Apr-17 21:59N 40°41' W 074°09'0 0.0
2018-Apr-17 21:29N 40°41' W 074°09'0 0.0
2018-Apr-17 20:59N 40°41' W 074°09'0 0.0
2018-Apr-17 20:26N 40°41' W 074°09'0 0.0
2018-Apr-17 19:59N 40°41' W 074°09'0 0.1
2018-Apr-17 19:29N 40°41' W 074°09'0 0.0
2018-Apr-17 18:56N 40°41' W 074°09'0 0.0
2018-Apr-17 18:23N 40°41' W 074°09'0 0.0
2018-Apr-17 17:59N 40°41' W 074°09'0 0.0
2018-Apr-17 17:29N 40°41' W 074°09'0 0.0
2018-Apr-17 16:59N 40°41' W 074°09'0 0.0
2018-Apr-17 16:29N 40°41' W 074°09'0 0.0
2018-Apr-17 15:59N 40°41' W 074°09'0 0.0
2018-Apr-17 15:29N 40°41' W 074°09'0 0.1
2018-Apr-17 14:59N 40°41' W 074°09'0 0.0
2018-Apr-17 14:29N 40°41' W 074°09'0 0.0
2018-Apr-17 13:59N 40°41' W 074°09'0 0.0
2018-Apr-17 13:29N 40°41' W 074°09'0 0.0
2018-Apr-17 12:56N 40°41' W 074°09'0 0.0
2018-Apr-17 12:29N 40°41' W 074°09'0 0.0
2018-Apr-17 11:56N 40°41' W 074°09'0 0.0
2018-Apr-17 11:29N 40°41' W 074°09'0 0.0
2018-Apr-17 10:59N 40°41' W 074°09'0 0.0
2018-Apr-17 10:26N 40°41' W 074°09'0 0.0
2018-Apr-17 09:59N 40°41' W 074°09'0 0.0
2018-Apr-17 09:29N 40°41' W 074°09'0 0.0
2018-Apr-17 08:59N 40°41' W 074°09'0 0.1
2018-Apr-17 08:29N 40°41' W 074°09'0 0.0
2018-Apr-17 07:59N 40°41' W 074°09'0 0.0
2018-Apr-17 07:29N 40°41' W 074°09'0 0.0
2018-Apr-17 06:59N 40°41' W 074°09'0 0.0
2018-Apr-17 06:29N 40°41' W 074°09'0 0.0
2018-Apr-17 05:59N 40°41' W 074°09'0 0.0
2018-Apr-17 05:29N 40°41' W 074°09'0 0.0
2018-Apr-17 04:59N 40°41' W 074°09'0 0.0
2018-Apr-17 04:29N 40°41' W 074°09'0 0.0
2018-Apr-17 03:59N 40°41' W 074°09'0 0.0
2018-Apr-17 03:29N 40°41' W 074°09'0 0.0
2018-Apr-17 02:58N 40°41' W 074°09'0 0.0
2018-Apr-17 02:28N 40°41' W 074°09'0 0.0
2018-Apr-17 01:58N 40°41' W 074°09'0 0.0
2018-Apr-17 01:28N 40°41' W 074°09'0 0.0
2018-Apr-17 00:58N 40°41' W 074°09'0 0.0
2018-Apr-17 00:28N 40°41' W 074°09'0 0.0
2018-Apr-16 23:58N 40°41' W 074°09'0 0.0
2018-Apr-16 23:28N 40°41' W 074°09'0 0.0
2018-Apr-16 22:58N 40°41' W 074°09'0 0.0
2018-Apr-16 22:28N 40°41' W 074°09'0 0.0
2018-Apr-16 21:58N 40°41' W 074°09'0 0.0
2018-Apr-16 21:30N 40°41' W 074°09'0 0.8
2018-Apr-16 21:00N 40°41' W 074°09'1 2.3
2018-Apr-16 20:30N 40°40' W 074°09'1 2.9
2018-Apr-16 20:00N 40°39' W 074°07'3 5.4
2018-Apr-16 19:30N 40°39' W 074°04'4 8.2
2018-Apr-16 19:00N 40°35' W 074°02'611.4
2018-Apr-16 18:30N 40°30' W 073°57'612.5
2018-Apr-16 18:00N 40°28' W 073°50'3 6.9
2018-Apr-16 17:30N 40°26' W 073°46'4 7.3
2018-Apr-16 17:00N 40°23' W 073°42'5110.2
2018-Apr-16 12:00N 39°48' W 072°54'8914.9 120 / 331011.0 0.1 16.012.7 7.0
2018-Apr-16 06:00N 38°42' W 071°36'8413.9 140 / 231020.0 19.017.513.0
2018-Apr-16 00:00N 37°30' W 070°42'8514.2 170 / 201023.010.8 25.020.724.0
2018-Apr-15 18:00N 36°06' W 071°00'8514.2 190 / 151025.027.0 25.022.222.0
2018-Apr-15 12:00N 34°42' W 071°18'8514.1 210 / 91025.027.0 21.018.021.0
2018-Apr-15 06:00N 33°18' W 071°30'9215.4 210 / 71025.0 21.019.522.0
2018-Apr-15 00:00N 31°48' W 071°54'19516.2 140 / 41025.010.8 21.018.022.0
2018-Apr-14 12:00N 28°36' W 072°30'9115.2 010 / 141025.027.0 23.020.123.0
2018-Apr-14 06:00N 27°06' W 072°48'   090 / 201022.0 24.022.624.0

Dump ship's entire track history